Terminal Aerodrome Forecast
Issued by NWS Pittsburgh, PA

Current Version | Previous Version | Graphics & Text | Print | Product List | Glossary On
Versions: 1 2 3 4 5 6 7 8 9 10 11 12 13 14 15 16 17 18 19 20 21 22 23 24 25 26 27 28 29 30 31 32 33 34 35
000
FTUS41 KPBZ 311720
TAFPIT
TAF
KPIT 311720Z 3118/0124 22008KT P6SM VCTS BKN035CB
      TEMPO 3118/3121 3SM -TSRA
     FM312300 25005KT P6SM VCSH BKN035
     FM010300 28005KT P6SM BKN015
     FM010600 30005KT P6SM BKN007
     FM011600 32005KT P6SM BKN015=

USA.gov is the U.S. government's official web portal to all federal, state and local government web resources and services.